fecha-hora | temperatura | viento dirección-velocidad-rachas | humedad | presión

  • 27-09-2020 03:00:00 | 7.90°C | Noroeste-26.00 km/h - 58.00 km/h | 90.00% | 0.00 hPa
  • 27-09-2020 02:00:00 | 7.90°C | Noroeste-27.00 km/h - 55.00 km/h | 90.00% | 0.00 hPa
  • 27-09-2020 01:00:00 | 7.60°C | Noroeste-23.00 km/h - 51.00 km/h | 90.00% | 0.00 hPa
  • 27-09-2020 00:00:00 | 7.50°C | Noroeste-24.00 km/h - 48.00 km/h | 90.00% | 0.00 hPa
  • 26-09-2020 23:00:00 | 7.50°C | Noroeste-22.00 km/h - 56.00 km/h | 90.00% | 0.00 hPa
  • 26-09-2020 22:00:00 | 7.90°C | Noroeste-26.00 km/h - 63.00 km/h | 90.00% | 0.00 hPa
  • 26-09-2020 21:00:00 | 8.70°C | Noroeste-22.00 km/h - 50.00 km/h | 90.00% | 0.00 hPa
  • 26-09-2020 20:00:00 | 8.70°C | Noroeste-22.00 km/h - 41.00 km/h | 90.00% | 0.00 hPa
  • 26-09-2020 19:00:00 | 8.70°C | Noroeste-15.00 km/h - 39.00 km/h | 90.00% | 0.00 hPa
  • 26-09-2020 18:00:00 | 8.40°C | Noroeste-17.00 km/h - 40.00 km/h | 90.00% | 0.00 hPa
  • 26-09-2020 17:00:00 | 8.10°C | Noroeste-17.00 km/h - 37.00 km/h | 90.00% | 0.00 hPa
  • 26-09-2020 16:00:00 | 7.20°C | Oeste-8.00 km/h - 21.00 km/h | 90.00% | 0.00 hPa
  • 26-09-2020 15:00:00 | 7.50°C | Noroeste-4.00 km/h - 11.00 km/h | 91.00% | 0.00 hPa
  • 26-09-2020 14:00:00 | 7.00°C | Norte-4.00 km/h - 11.00 km/h | 91.00% | 0.00 hPa
  • 26-09-2020 13:00:00 | 6.50°C | Noroeste-5.00 km/h - 19.00 km/h | 91.00% | 0.00 hPa
  • 26-09-2020 12:00:00 | 5.40°C | Noroeste-7.00 km/h - 16.00 km/h | 91.00% | 0.00 hPa
  • 26-09-2020 11:00:00 | 5.10°C | Noroeste-7.00 km/h - 18.00 km/h | 91.00% | 0.00 hPa
  • 26-09-2020 10:00:00 | 4.80°C | Noroeste-13.00 km/h - 24.00 km/h | 91.00% | 0.00 hPa
  • 26-09-2020 09:00:00 | 4.10°C | Noroeste-10.00 km/h - 22.00 km/h | 91.00% | 0.00 hPa
  • 26-09-2020 08:00:00 | 3.70°C | Noroeste-8.00 km/h - 17.00 km/h | 91.00% | 0.00 hPa
  • 26-09-2020 07:00:00 | 3.60°C | Norte-6.00 km/h - 15.00 km/h | 91.00% | 0.00 hPa
  • 26-09-2020 06:00:00 | 3.20°C | Noroeste-7.00 km/h - 19.00 km/h | 91.00% | 0.00 hPa
  • 26-09-2020 05:00:00 | 2.90°C | Noroeste-9.00 km/h - 18.00 km/h | 91.00% | 0.00 hPa
  • 26-09-2020 04:00:00 | 2.50°C | Noroeste-8.00 km/h - 26.00 km/h | 91.00% | 0.00 hPa
    • diseño web asturias Información sobre el estado de las mareas, altura de la marejada, temperatura del agua y otros datos de Gijón en Asturias.

      Surf Gijón